sensor_id;sensor_type;location;lat;lon;timestamp;pressure;altitude;pressure_sealevel;temperature;humidity
77351;BME280;66420;50.246;14.320;2023-07-30T00:00:55;99082.31;;;15.61;92.92
77351;BME280;66420;50.246;14.320;2023-07-30T00:03:39;99080.44;;;15.65;92.12
77351;BME280;66420;50.246;14.320;2023-07-30T00:06:24;99087.38;;;15.59;93.26
77351;BME280;66420;50.246;14.320;2023-07-30T00:09:09;99086.69;;;15.62;92.60
77351;BME280;66420;50.246;14.320;2023-07-30T00:11:53;99089.69;;;15.57;92.95
77351;BME280;66420;50.246;14.320;2023-07-30T00:14:38;99085.06;;;15.61;92.23
77351;BME280;66420;50.246;14.320;2023-07-30T00:17:22;99083.03;;;15.58;93.29
77351;BME280;66420;50.246;14.320;2023-07-30T00:20:08;99078.44;;;15.50;94.24
77351;BME280;66420;50.246;14.320;2023-07-30T00:22:53;99071.84;;;15.82;91.00
77351;BME280;66420;50.246;14.320;2023-07-30T00:25:37;99077.81;;;15.84;91.29
77351;BME280;66420;50.246;14.320;2023-07-30T00:28:22;99080.91;;;15.67;92.54
77351;BME280;66420;50.246;14.320;2023-07-30T00:31:07;99078.84;;;15.64;92.31
77351;BME280;66420;50.246;14.320;2023-07-30T00:33:52;99080.00;;;15.63;93.62
77351;BME280;66420;50.246;14.320;2023-07-30T00:36:37;99066.91;;;15.60;92.63
77351;BME280;66420;50.246;14.320;2023-07-30T00:39:21;99066.91;;;15.60;93.05
77351;BME280;66420;50.246;14.320;2023-07-30T00:42:06;99063.72;;;15.58;91.93
77351;BME280;66420;50.246;14.320;2023-07-30T00:44:51;99066.28;;;15.51;92.73
77351;BME280;66420;50.246;14.320;2023-07-30T00:47:37;99060.09;;;15.42;92.92
77351;BME280;66420;50.246;14.320;2023-07-30T00:50:23;99059.38;;;15.45;92.61
77351;BME280;66420;50.246;14.320;2023-07-30T00:53:09;99063.31;;;15.44;91.84
77351;BME280;66420;50.246;14.320;2023-07-30T00:55:54;99062.84;;;15.42;91.99
77351;BME280;66420;50.246;14.320;2023-07-30T00:58:39;99058.13;;;15.42;91.62
77351;BME280;66420;50.246;14.320;2023-07-30T01:01:25;99062.84;;;15.42;92.30
77351;BME280;66420;50.246;14.320;2023-07-30T01:04:10;99063.31;;;15.44;92.24
77351;BME280;66420;50.246;14.320;2023-07-30T01:06:55;99066.41;;;15.42;91.26
77351;BME280;66420;50.246;14.320;2023-07-30T01:09:40;99065.22;;;15.28;92.81
77351;BME280;66420;50.246;14.320;2023-07-30T01:12:25;99062.94;;;15.18;93.75
77351;BME280;66420;50.246;14.320;2023-07-30T01:15:10;99062.91;;;15.30;92.31
77351;BME280;66420;50.246;14.320;2023-07-30T01:17:56;99061.31;;;15.29;93.39
77351;BME280;66420;50.246;14.320;2023-07-30T01:20:41;99059.78;;;15.31;91.87
77351;BME280;66420;50.246;14.320;2023-07-30T01:23:26;99069.56;;;15.29;92.67
77351;BME280;66420;50.246;14.320;2023-07-30T01:26:12;99079.91;;;15.32;92.76
77351;BME280;66420;50.246;14.320;2023-07-30T01:29:08;99078.56;;;15.26;91.95
77351;BME280;66420;50.246;14.320;2023-07-30T01:31:56;99077.63;;;15.22;92.50
77351;BME280;66420;50.246;14.320;2023-07-30T01:34:43;99069.28;;;15.18;92.03
77351;BME280;66420;50.246;14.320;2023-07-30T01:37:30;99076.88;;;15.09;93.42
77351;BME280;66420;50.246;14.320;2023-07-30T01:40:15;99077.69;;;15.09;92.83
77351;BME280;66420;50.246;14.320;2023-07-30T01:43:00;99080.91;;;15.12;93.17
77351;BME280;66420;50.246;14.320;2023-07-30T01:45:46;99076.53;;;15.11;92.63
77351;BME280;66420;50.246;14.320;2023-07-30T01:48:30;99074.22;;;15.13;92.26
77351;BME280;66420;50.246;14.320;2023-07-30T01:51:15;99078.69;;;15.17;92.10
77351;BME280;66420;50.246;14.320;2023-07-30T01:54:00;99077.13;;;15.04;93.04
77351;BME280;66420;50.246;14.320;2023-07-30T01:56:45;99070.47;;;15.05;93.64
77351;BME280;66420;50.246;14.320;2023-07-30T01:59:29;99072.63;;;15.12;92.42
77351;BME280;66420;50.246;14.320;2023-07-30T02:02:14;99071.75;;;15.07;91.81
77351;BME280;66420;50.246;14.320;2023-07-30T02:04:59;99076.72;;;14.90;94.02
77351;BME280;66420;50.246;14.320;2023-07-30T02:07:43;99086.97;;;14.77;94.86
77351;BME280;66420;50.246;14.320;2023-07-30T02:10:28;99084.91;;;14.74;96.18
77351;BME280;66420;50.246;14.320;2023-07-30T02:13:12;99083.78;;;14.75;94.47
77351;BME280;66420;50.246;14.320;2023-07-30T02:15:58;99080.56;;;14.73;94.64
77351;BME280;66420;50.246;14.320;2023-07-30T02:18:42;99088.56;;;14.78;95.00
77351;BME280;66420;50.246;14.320;2023-07-30T02:21:28;99083.25;;;14.85;94.56
77351;BME280;66420;50.246;14.320;2023-07-30T02:24:14;99080.50;;;14.85;93.39
77351;BME280;66420;50.246;14.320;2023-07-30T02:26:59;99079.59;;;14.81;95.17
77351;BME280;66420;50.246;14.320;2023-07-30T02:29:44;99078.22;;;14.87;93.88
77351;BME280;66420;50.246;14.320;2023-07-30T02:32:29;99086.25;;;14.92;93.47
77351;BME280;66420;50.246;14.320;2023-07-30T02:35:14;99087.88;;;14.81;95.60
77351;BME280;66420;50.246;14.320;2023-07-30T02:37:58;99089.38;;;14.79;95.67
77351;BME280;66420;50.246;14.320;2023-07-30T02:40:42;99089.03;;;14.80;94.98
77351;BME280;66420;50.246;14.320;2023-07-30T02:43:27;99075.00;;;14.85;95.33
77351;BME280;66420;50.246;14.320;2023-07-30T02:46:12;99078.13;;;14.84;95.28
77351;BME280;66420;50.246;14.320;2023-07-30T02:48:56;99085.59;;;14.83;95.40
77351;BME280;66420;50.246;14.320;2023-07-30T02:51:41;99087.44;;;14.79;96.29
77351;BME280;66420;50.246;14.320;2023-07-30T02:54:27;99087.78;;;14.78;97.51
77351;BME280;66420;50.246;14.320;2023-07-30T02:57:12;99082.41;;;14.69;99.24
77351;BME280;66420;50.246;14.320;2023-07-30T02:59:57;99088.34;;;14.71;98.26
77351;BME280;66420;50.246;14.320;2023-07-30T03:02:42;99084.69;;;14.67;98.18
77351;BME280;66420;50.246;14.320;2023-07-30T03:05:27;99086.75;;;14.58;99.92
77351;BME280;66420;50.246;14.320;2023-07-30T03:08:12;99084.72;;;14.55;99.43
77351;BME280;66420;50.246;14.320;2023-07-30T03:10:58;99080.34;;;14.54;98.44
77351;BME280;66420;50.246;14.320;2023-07-30T03:13:43;99086.66;;;14.54;99.06
77351;BME280;66420;50.246;14.320;2023-07-30T03:16:28;99083.47;;;14.52;98.17
77351;BME280;66420;50.246;14.320;2023-07-30T03:19:13;99090.69;;;14.57;98.32
77351;BME280;66420;50.246;14.320;2023-07-30T03:21:57;99081.50;;;14.53;98.99
77351;BME280;66420;50.246;14.320;2023-07-30T03:24:42;99082.88;;;14.59;97.23
77351;BME280;66420;50.246;14.320;2023-07-30T03:27:26;99074.38;;;14.64;97.07
77351;BME280;66420;50.246;14.320;2023-07-30T03:30:12;99078.38;;;14.67;96.37
77351;BME280;66420;50.246;14.320;2023-07-30T03:32:56;99084.44;;;14.72;96.28
77351;BME280;66420;50.246;14.320;2023-07-30T03:35:41;99080.09;;;14.71;96.99
77351;BME280;66420;50.246;14.320;2023-07-30T03:38:27;99081.91;;;14.79;95.11
77351;BME280;66420;50.246;14.320;2023-07-30T03:41:12;99078.94;;;14.84;95.33
77351;BME280;66420;50.246;14.320;2023-07-30T03:43:56;99076.50;;;14.83;95.54
77351;BME280;66420;50.246;14.320;2023-07-30T03:46:43;99079.50;;;14.78;96.34
77351;BME280;66420;50.246;14.320;2023-07-30T03:49:28;99086.28;;;14.68;96.88
77351;BME280;66420;50.246;14.320;2023-07-30T03:52:12;99077.25;;;14.55;99.10
77351;BME280;66420;50.246;14.320;2023-07-30T03:54:57;99078.72;;;14.53;99.32
77351;BME280;66420;50.246;14.320;2023-07-30T03:57:41;99075.88;;;14.61;97.23
77351;BME280;66420;50.246;14.320;2023-07-30T04:00:26;99074.59;;;14.59;97.92
77351;BME280;66420;50.246;14.320;2023-07-30T04:03:10;99078.72;;;14.53;99.58
77351;BME280;66420;50.246;14.320;2023-07-30T04:05:55;99074.63;;;14.47;100.00
77351;BME280;66420;50.246;14.320;2023-07-30T04:08:40;99079.22;;;14.55;98.99
77351;BME280;66420;50.246;14.320;2023-07-30T04:11:25;99072.81;;;14.39;100.00
77351;BME280;66420;50.246;14.320;2023-07-30T04:14:10;99075.88;;;14.49;99.29
77351;BME280;66420;50.246;14.320;2023-07-30T04:16:55;99074.53;;;14.43;100.00
77351;BME280;66420;50.246;14.320;2023-07-30T04:19:40;99084.50;;;14.36;100.00
77351;BME280;66420;50.246;14.320;2023-07-30T04:22:24;99074.63;;;14.47;99.57
77351;BME280;66420;50.246;14.320;2023-07-30T04:25:09;99079.00;;;14.36;100.00
77351;BME280;66420;50.246;14.320;2023-07-30T04:27:57;99079.09;;;14.51;99.42
77351;BME280;66420;50.246;14.320;2023-07-30T04:30:43;99081.94;;;14.67;98.52
77351;BME280;66420;50.246;14.320;2023-07-30T04:33:28;99091.09;;;14.71;98.32
77351;BME280;66420;50.246;14.320;2023-07-30T04:36:13;99083.34;;;14.61;99.57
77351;BME280;66420;50.246;14.320;2023-07-30T04:38:58;99097.06;;;14.73;98.76
77351;BME280;66420;50.246;14.320;2023-07-30T04:41:42;99100.16;;;14.84;97.54
77351;BME280;66420;50.246;14.320;2023-07-30T04:44:27;99102.88;;;14.96;97.77
77351;BME280;66420;50.246;14.320;2023-07-30T04:47:11;99099.56;;;14.90;98.56
77351;BME280;66420;50.246;14.320;2023-07-30T04:49:56;99100.69;;;15.01;98.46
77351;BME280;66420;50.246;14.320;2023-07-30T04:52:41;99111.41;;;15.19;97.56
77351;BME280;66420;50.246;14.320;2023-07-30T04:55:25;99113.22;;;15.27;97.47
77351;BME280;66420;50.246;14.320;2023-07-30T04:58:10;99107.56;;;15.35;97.11
77351;BME280;66420;50.246;14.320;2023-07-30T05:00:55;99107.31;;;15.40;96.59
77351;BME280;66420;50.246;14.320;2023-07-30T05:03:40;99108.13;;;15.53;95.08
77351;BME280;66420;50.246;14.320;2023-07-30T05:06:25;99104.72;;;15.60;96.20
77351;BME280;66420;50.246;14.320;2023-07-30T05:09:10;99109.41;;;15.71;95.29
77351;BME280;66420;50.246;14.320;2023-07-30T05:11:55;99101.91;;;15.72;94.89
77351;BME280;66420;50.246;14.320;2023-07-30T05:14:41;99111.19;;;15.79;95.62
77351;BME280;66420;50.246;14.320;2023-07-30T05:17:25;99116.16;;;15.74;94.93
77351;BME280;66420;50.246;14.320;2023-07-30T05:20:11;99116.19;;;15.89;94.04
77351;BME280;66420;50.246;14.320;2023-07-30T05:22:55;99113.34;;;16.02;93.21
77351;BME280;66420;50.246;14.320;2023-07-30T05:25:40;99107.63;;;16.10;93.01
77351;BME280;66420;50.246;14.320;2023-07-30T05:28:26;99109.53;;;16.22;94.23
77351;BME280;66420;50.246;14.320;2023-07-30T05:31:10;99105.31;;;16.28;94.26
77351;BME280;66420;50.246;14.320;2023-07-30T05:33:55;99099.97;;;16.35;94.37
77351;BME280;66420;50.246;14.320;2023-07-30T05:36:39;99104.84;;;16.41;94.38
77351;BME280;66420;50.246;14.320;2023-07-30T05:39:24;99097.97;;;16.51;91.78
77351;BME280;66420;50.246;14.320;2023-07-30T05:42:08;99101.09;;;16.65;94.20
77351;BME280;66420;50.246;14.320;2023-07-30T05:44:53;99106.44;;;16.74;91.61
77351;BME280;66420;50.246;14.320;2023-07-30T05:47:38;99108.56;;;16.80;93.35
77351;BME280;66420;50.246;14.320;2023-07-30T05:52:50;99111.13;;;16.89;93.08
77351;BME280;66420;50.246;14.320;2023-07-30T05:55:35;99119.78;;;16.88;93.48
77351;BME280;66420;50.246;14.320;2023-07-30T05:58:19;99122.25;;;16.93;92.91
77351;BME280;66420;50.246;14.320;2023-07-30T06:01:04;99119.66;;;17.00;92.98
77351;BME280;66420;50.246;14.320;2023-07-30T06:03:48;99124.19;;;17.08;91.39
77351;BME280;66420;50.246;14.320;2023-07-30T06:06:33;99133.06;;;17.17;93.86
77351;BME280;66420;50.246;14.320;2023-07-30T06:09:18;99126.66;;;17.13;93.05
77351;BME280;66420;50.246;14.320;2023-07-30T06:12:02;99125.97;;;17.00;93.36
77351;BME280;66420;50.246;14.320;2023-07-30T06:14:47;99125.28;;;16.88;94.76
77351;BME280;66420;50.246;14.320;2023-07-30T06:17:32;99120.06;;;16.82;96.05
77351;BME280;66420;50.246;14.320;2023-07-30T06:20:16;99121.22;;;16.81;96.44
77351;BME280;66420;50.246;14.320;2023-07-30T06:23:01;99120.28;;;16.93;96.25
77351;BME280;66420;50.246;14.320;2023-07-30T06:25:45;99133.34;;;17.12;95.64
77351;BME280;66420;50.246;14.320;2023-07-30T06:28:30;99136.69;;;17.21;94.55
77351;BME280;66420;50.246;14.320;2023-07-30T06:31:15;99130.59;;;17.12;95.59
77351;BME280;66420;50.246;14.320;2023-07-30T06:33:59;99127.88;;;17.15;96.07
77351;BME280;66420;50.246;14.320;2023-07-30T06:36:44;99139.63;;;17.09;97.15
77351;BME280;66420;50.246;14.320;2023-07-30T06:39:28;99143.81;;;17.03;97.45
77351;BME280;66420;50.246;14.320;2023-07-30T06:42:13;99152.84;;;17.00;97.27
77351;BME280;66420;50.246;14.320;2023-07-30T06:44:59;99147.47;;;17.07;97.28
77351;BME280;66420;50.246;14.320;2023-07-30T06:47:44;99144.06;;;17.13;96.95
77351;BME280;66420;50.246;14.320;2023-07-30T06:50:28;99149.31;;;17.18;96.58
77351;BME280;66420;50.246;14.320;2023-07-30T06:53:13;99145.34;;;17.19;96.63
77351;BME280;66420;50.246;14.320;2023-07-30T06:55:58;99143.56;;;17.27;95.83
77351;BME280;66420;50.246;14.320;2023-07-30T06:58:43;99139.03;;;17.38;94.56
77351;BME280;66420;50.246;14.320;2023-07-30T07:01:27;99149.81;;;17.43;95.65
77351;BME280;66420;50.246;14.320;2023-07-30T07:04:12;99145.53;;;17.46;96.72
77351;BME280;66420;50.246;14.320;2023-07-30T07:06:57;99155.34;;;17.43;96.74
77351;BME280;66420;50.246;14.320;2023-07-30T07:09:42;99158.97;;;17.47;96.90
77351;BME280;66420;50.246;14.320;2023-07-30T07:12:27;99155.88;;;17.49;98.06
77351;BME280;66420;50.246;14.320;2023-07-30T07:15:12;99154.25;;;17.48;96.35
77351;BME280;66420;50.246;14.320;2023-07-30T07:17:56;99160.59;;;17.48;95.95
77351;BME280;66420;50.246;14.320;2023-07-30T07:20:41;99173.69;;;17.51;95.26
77351;BME280;66420;50.246;14.320;2023-07-30T07:23:25;99169.69;;;17.49;97.61
77351;BME280;66420;50.246;14.320;2023-07-30T07:26:10;99180.53;;;17.38;98.56
77351;BME280;66420;50.246;14.320;2023-07-30T07:28:55;99183.56;;;17.33;100.00
77351;BME280;66420;50.246;14.320;2023-07-30T07:31:41;99180.81;;;17.33;100.00
77351;BME280;66420;50.246;14.320;2023-07-30T07:34:25;99196.09;;;17.27;100.00
77351;BME280;66420;50.246;14.320;2023-07-30T07:37:10;99192.47;;;17.23;100.00
77351;BME280;66420;50.246;14.320;2023-07-30T07:39:55;99197.91;;;17.19;100.00
77351;BME280;66420;50.246;14.320;2023-07-30T07:42:39;99198.69;;;17.20;100.00
77351;BME280;66420;50.246;14.320;2023-07-30T07:45:24;99185.31;;;17.22;100.00
77351;BME280;66420;50.246;14.320;2023-07-30T07:48:09;99192.75;;;17.18;100.00
77351;BME280;66420;50.246;14.320;2023-07-30T07:50:53;99194.31;;;17.19;100.00
77351;BME280;66420;50.246;14.320;2023-07-30T07:53:39;99187.63;;;17.20;100.00
77351;BME280;66420;50.246;14.320;2023-07-30T07:56:23;99184.59;;;17.25;100.00
77351;BME280;66420;50.246;14.320;2023-07-30T07:59:08;99182.84;;;17.17;100.00
77351;BME280;66420;50.246;14.320;2023-07-30T08:01:53;99183.19;;;17.15;100.00
77351;BME280;66420;50.246;14.320;2023-07-30T08:04:38;99186.75;;;17.16;100.00
77351;BME280;66420;50.246;14.320;2023-07-30T08:07:23;99184.19;;;17.07;100.00
77351;BME280;66420;50.246;14.320;2023-07-30T08:10:08;99184.03;;;17.00;100.00
77351;BME280;66420;50.246;14.320;2023-07-30T08:12:53;99171.13;;;16.89;100.00
77351;BME280;66420;50.246;14.320;2023-07-30T08:15:38;99177.22;;;16.78;100.00
77351;BME280;66420;50.246;14.320;2023-07-30T08:18:22;99178.75;;;16.76;100.00
77351;BME280;66420;50.246;14.320;2023-07-30T08:21:07;99166.88;;;16.75;100.00
77351;BME280;66420;50.246;14.320;2023-07-30T08:23:52;99171.94;;;16.73;100.00
77351;BME280;66420;50.246;14.320;2023-07-30T08:26:37;99166.88;;;16.75;100.00
77351;BME280;66420;50.246;14.320;2023-07-30T08:29:22;99172.41;;;16.75;100.00
77351;BME280;66420;50.246;14.320;2023-07-30T08:32:06;99176.31;;;16.74;100.00
77351;BME280;66420;50.246;14.320;2023-07-30T08:34:51;99173.22;;;16.76;100.00
77351;BME280;66420;50.246;14.320;2023-07-30T08:37:36;99175.59;;;16.77;100.00
77351;BME280;66420;50.246;14.320;2023-07-30T08:40:21;99172.56;;;16.82;100.00
77351;BME280;66420;50.246;14.320;2023-07-30T08:43:07;99173.53;;;16.90;100.00
77351;BME280;66420;50.246;14.320;2023-07-30T08:45:52;99175.31;;;16.98;100.00
77351;BME280;66420;50.246;14.320;2023-07-30T08:48:37;99185.00;;;17.08;100.00
77351;BME280;66420;50.246;14.320;2023-07-30T08:51:22;99178.19;;;17.21;100.00
77351;BME280;66420;50.246;14.320;2023-07-30T08:54:10;99171.34;;;17.34;100.00
77351;BME280;66420;50.246;14.320;2023-07-30T08:56:57;99178.81;;;17.49;100.00
77351;BME280;66420;50.246;14.320;2023-07-30T08:59:48;99176.34;;;17.63;100.00
77351;BME280;66420;50.246;14.320;2023-07-30T09:02:38;99170.59;;;17.72;100.00
77351;BME280;66420;50.246;14.320;2023-07-30T09:05:23;99173.88;;;17.78;100.00
77351;BME280;66420;50.246;14.320;2023-07-30T09:08:08;99178.66;;;17.81;100.00
77351;BME280;66420;50.246;14.320;2023-07-30T09:10:54;99177.28;;;17.90;100.00
77351;BME280;66420;50.246;14.320;2023-07-30T09:13:40;99176.91;;;17.92;100.00
77351;BME280;66420;50.246;14.320;2023-07-30T09:16:25;99169.47;;;17.96;100.00
77351;BME280;66420;50.246;14.320;2023-07-30T09:19:16;99163.75;;;18.08;100.00
77351;BME280;66420;50.246;14.320;2023-07-30T09:22:07;99171.59;;;18.25;100.00
77351;BME280;66420;50.246;14.320;2023-07-30T09:24:56;99164.69;;;18.38;99.96
77351;BME280;66420;50.246;14.320;2023-07-30T09:27:41;99163.72;;;18.73;100.00
77351;BME280;66420;50.246;14.320;2023-07-30T09:30:26;99162.03;;;19.21;100.00
77351;BME280;66420;50.246;14.320;2023-07-30T09:33:18;99155.88;;;19.64;100.00
77351;BME280;66420;50.246;14.320;2023-07-30T09:36:04;99149.97;;;19.66;92.98
77351;BME280;66420;50.246;14.320;2023-07-30T09:38:51;99160.78;;;20.11;93.05
77351;BME280;66420;50.246;14.320;2023-07-30T09:41:36;99162.78;;;20.55;92.16
77351;BME280;66420;50.246;14.320;2023-07-30T09:44:21;99162.16;;;20.75;90.80
77351;BME280;66420;50.246;14.320;2023-07-30T09:47:09;99163.38;;;20.82;88.53
77351;BME280;66420;50.246;14.320;2023-07-30T09:49:54;99162.38;;;21.07;88.40
77351;BME280;66420;50.246;14.320;2023-07-30T09:52:38;99144.34;;;21.56;89.72
77351;BME280;66420;50.246;14.320;2023-07-30T09:55:23;99149.97;;;21.63;86.52
77351;BME280;66420;50.246;14.320;2023-07-30T09:58:08;99148.38;;;21.62;85.61
77351;BME280;66420;50.246;14.320;2023-07-30T10:00:58;99147.94;;;21.63;84.71
77351;BME280;66420;50.246;14.320;2023-07-30T10:03:44;99150.72;;;21.63;84.45
77351;BME280;66420;50.246;14.320;2023-07-30T10:06:29;99157.47;;;21.52;83.39
77351;BME280;66420;50.246;14.320;2023-07-30T10:09:17;99154.69;;;21.59;84.50
77351;BME280;66420;50.246;14.320;2023-07-30T10:12:04;99160.31;;;21.73;84.74
77351;BME280;66420;50.246;14.320;2023-07-30T10:14:50;99159.50;;;21.62;84.68
77351;BME280;66420;50.246;14.320;2023-07-30T10:17:34;99145.31;;;22.02;84.41
77351;BME280;66420;50.246;14.320;2023-07-30T10:20:27;99150.94;;;22.48;81.82
77351;BME280;66420;50.246;14.320;2023-07-30T10:23:13;99147.75;;;22.43;79.40
77351;BME280;66420;50.246;14.320;2023-07-30T10:25:58;99140.16;;;22.15;79.59
77351;BME280;66420;50.246;14.320;2023-07-30T10:28:43;99149.75;;;22.60;78.87
77351;BME280;66420;50.246;14.320;2023-07-30T10:31:41;99141.00;;;22.79;77.72
77351;BME280;66420;50.246;14.320;2023-07-30T10:34:27;99131.78;;;23.04;78.55
77351;BME280;66420;50.246;14.320;2023-07-30T10:37:27;99139.00;;;22.94;74.84
77351;BME280;66420;50.246;14.320;2023-07-30T10:40:15;99138.22;;;22.76;77.24
77351;BME280;66420;50.246;14.320;2023-07-30T10:43:02;99123.06;;;22.52;73.48
77351;BME280;66420;50.246;14.320;2023-07-30T10:45:49;99124.66;;;22.57;77.25
77351;BME280;66420;50.246;14.320;2023-07-30T10:48:42;99136.19;;;22.94;77.85
77351;BME280;66420;50.246;14.320;2023-07-30T10:51:28;99127.75;;;23.15;75.22
77351;BME280;66420;50.246;14.320;2023-07-30T10:54:14;99112.13;;;23.50;73.80
77351;BME280;66420;50.246;14.320;2023-07-30T10:57:00;99111.22;;;23.74;70.82
77351;BME280;66420;50.246;14.320;2023-07-30T10:59:46;99108.53;;;23.49;72.23
77351;BME280;66420;50.246;14.320;2023-07-30T11:02:31;99112.19;;;23.25;71.06
77351;BME280;66420;50.246;14.320;2023-07-30T11:05:16;99110.25;;;23.08;71.07
77351;BME280;66420;50.246;14.320;2023-07-30T11:08:00;99106.97;;;23.30;70.71
77351;BME280;66420;50.246;14.320;2023-07-30T11:10:46;99096.16;;;23.43;69.10
77351;BME280;66420;50.246;14.320;2023-07-30T11:13:42;99099.59;;;23.79;67.60
77351;BME280;66420;50.246;14.320;2023-07-30T11:16:27;99095.16;;;23.85;71.89
77351;BME280;66420;50.246;14.320;2023-07-30T11:19:12;99100.38;;;23.79;72.38
77351;BME280;66420;50.246;14.320;2023-07-30T11:21:59;99096.59;;;23.34;71.44
77351;BME280;66420;50.246;14.320;2023-07-30T11:24:43;99105.47;;;23.08;79.80
77351;BME280;66420;50.246;14.320;2023-07-30T11:27:28;99093.59;;;22.72;74.11
77351;BME280;66420;50.246;14.320;2023-07-30T11:30:12;99101.97;;;22.72;77.91
77351;BME280;66420;50.246;14.320;2023-07-30T11:32:57;99107.91;;;22.67;78.69
77351;BME280;66420;50.246;14.320;2023-07-30T11:35:43;99107.13;;;22.67;78.35
77351;BME280;66420;50.246;14.320;2023-07-30T11:38:30;99095.16;;;22.52;78.63
77351;BME280;66420;50.246;14.320;2023-07-30T11:41:15;99088.41;;;22.32;80.70
77351;BME280;66420;50.246;14.320;2023-07-30T11:44:00;99099.97;;;22.30;83.46
77351;BME280;66420;50.246;14.320;2023-07-30T11:46:54;99105.53;;;22.27;83.00
77351;BME280;66420;50.246;14.320;2023-07-30T11:49:38;99105.53;;;22.20;84.87
77351;BME280;66420;50.246;14.320;2023-07-30T11:52:23;99099.53;;;21.96;86.07
77351;BME280;66420;50.246;14.320;2023-07-30T11:55:08;99091.91;;;21.79;85.62
77351;BME280;66420;50.246;14.320;2023-07-30T11:57:53;99078.31;;;21.60;86.05
77351;BME280;66420;50.246;14.320;2023-07-30T12:00:39;99085.50;;;21.54;86.43
77351;BME280;66420;50.246;14.320;2023-07-30T12:03:24;99083.09;;;21.52;88.10
77351;BME280;66420;50.246;14.320;2023-07-30T12:06:10;99090.22;;;21.43;88.16
77351;BME280;66420;50.246;14.320;2023-07-30T12:08:55;99080.31;;;21.56;87.79
77351;BME280;66420;50.246;14.320;2023-07-30T12:11:57;99070.72;;;21.50;88.48
77351;BME280;66420;50.246;14.320;2023-07-30T12:17:33;99071.47;;;21.29;86.86
77351;BME280;66420;50.246;14.320;2023-07-30T12:20:17;99079.81;;;21.26;85.60
77351;BME280;66420;50.246;14.320;2023-07-30T12:23:02;99083.75;;;21.21;86.05
77351;BME280;66420;50.246;14.320;2023-07-30T12:25:47;99088.91;;;21.15;85.12
77351;BME280;66420;50.246;14.320;2023-07-30T12:28:33;99095.69;;;21.21;86.31
77351;BME280;66420;50.246;14.320;2023-07-30T12:31:18;99108.81;;;21.25;85.91
77351;BME280;66420;50.246;14.320;2023-07-30T12:34:03;99121.50;;;21.18;88.98
77351;BME280;66420;50.246;14.320;2023-07-30T12:36:48;99110.31;;;21.08;90.93
77351;BME280;66420;50.246;14.320;2023-07-30T12:39:32;99109.03;;;20.95;89.86
77351;BME280;66420;50.246;14.320;2023-07-30T12:42:17;99096.66;;;20.85;89.59
77351;BME280;66420;50.246;14.320;2023-07-30T12:45:02;99092.59;;;20.72;88.87
77351;BME280;66420;50.246;14.320;2023-07-30T12:47:47;99096.28;;;20.90;89.98
77351;BME280;66420;50.246;14.320;2023-07-30T12:50:31;99089.63;;;21.09;88.34
77351;BME280;66420;50.246;14.320;2023-07-30T12:53:16;99087.34;;;21.25;85.63
77351;BME280;66420;50.246;14.320;2023-07-30T12:56:01;99083.88;;;21.53;87.58
77351;BME280;66420;50.246;14.320;2023-07-30T12:58:46;99083.13;;;21.70;84.28
77351;BME280;66420;50.246;14.320;2023-07-30T13:01:31;99081.16;;;21.88;82.25
77351;BME280;66420;50.246;14.320;2023-07-30T13:04:15;99078.44;;;22.20;85.92
77351;BME280;66420;50.246;14.320;2023-07-30T13:07:01;99073.66;;;22.21;82.14
77351;BME280;66420;50.246;14.320;2023-07-30T13:09:46;99075.25;;;22.15;83.41
77351;BME280;66420;50.246;14.320;2023-07-30T13:12:32;99087.19;;;22.15;85.10
77351;BME280;66420;50.246;14.320;2023-07-30T13:15:17;99083.63;;;22.11;84.67
77351;BME280;66420;50.246;14.320;2023-07-30T13:18:03;99086.34;;;21.83;76.11
77351;BME280;66420;50.246;14.320;2023-07-30T13:20:48;99080.81;;;22.00;79.16
77351;BME280;66420;50.246;14.320;2023-07-30T13:23:34;99081.63;;;22.12;69.67
77351;BME280;66420;50.246;14.320;2023-07-30T13:26:18;99084.03;;;22.45;71.10
77351;BME280;66420;50.246;14.320;2023-07-30T13:29:03;99088.78;;;22.62;68.68
77351;BME280;66420;50.246;14.320;2023-07-30T13:31:47;99078.44;;;22.70;63.79
77351;BME280;66420;50.246;14.320;2023-07-30T13:34:32;99080.00;;;22.88;67.76
77351;BME280;66420;50.246;14.320;2023-07-30T13:37:17;99086.38;;;22.78;67.41
77351;BME280;66420;50.246;14.320;2023-07-30T13:40:02;99083.19;;;22.83;66.53
77351;BME280;66420;50.246;14.320;2023-07-30T13:42:47;99071.22;;;22.93;67.09
77351;BME280;66420;50.246;14.320;2023-07-30T13:45:32;99065.56;;;23.11;69.57
77351;BME280;66420;50.246;14.320;2023-07-30T13:48:16;99061.56;;;23.16;70.05
77351;BME280;66420;50.246;14.320;2023-07-30T13:51:01;99051.56;;;23.25;72.89
77351;BME280;66420;50.246;14.320;2023-07-30T13:53:46;99054.31;;;23.29;68.87
77351;BME280;66420;50.246;14.320;2023-07-30T13:56:31;99046.34;;;23.31;66.24
77351;BME280;66420;50.246;14.320;2023-07-30T13:59:15;99049.50;;;23.40;67.42
77351;BME280;66420;50.246;14.320;2023-07-30T14:02:00;99049.47;;;23.51;67.31
77351;BME280;66420;50.246;14.320;2023-07-30T14:04:45;99049.47;;;23.43;67.62
77351;BME280;66420;50.246;14.320;2023-07-30T14:07:29;99055.00;;;23.61;71.47
77351;BME280;66420;50.246;14.320;2023-07-30T14:10:14;99057.72;;;23.72;72.10
77351;BME280;66420;50.246;14.320;2023-07-30T14:12:59;99051.66;;;23.88;70.91
77351;BME280;66420;50.246;14.320;2023-07-30T14:15:44;99050.81;;;23.91;70.54
77351;BME280;66420;50.246;14.320;2023-07-30T14:18:29;99050.06;;;23.87;68.85
77351;BME280;66420;50.246;14.320;2023-07-30T14:21:14;99046.84;;;23.84;70.09
77351;BME280;66420;50.246;14.320;2023-07-30T14:23:59;99045.25;;;23.83;70.62
77351;BME280;66420;50.246;14.320;2023-07-30T14:26:43;99039.75;;;23.73;71.99